createdAt,value
2023-04-21T00:00:49.104Z,225.76
2023-04-21T00:03:56.320Z,226.44
2023-04-21T00:07:04.086Z,238.19
2023-04-21T00:10:13.261Z,244.83
2023-04-21T00:13:21.340Z,255.92
2023-04-21T00:16:31.000Z,255.83
2023-04-21T00:19:36.950Z,248.97
2023-04-21T00:22:44.028Z,340.62
2023-04-21T00:25:49.906Z,348.09
2023-04-21T00:28:56.757Z,301.13
2023-04-21T00:32:08.760Z,272.72
2023-04-21T00:35:16.421Z,295.42
2023-04-21T00:38:22.323Z,287.69
2023-04-21T00:41:32.073Z,256.59
2023-04-21T00:44:44.616Z,250.67
2023-04-21T00:47:54.128Z,257.38
2023-04-21T00:51:00.295Z,260.73
2023-04-21T00:54:10.435Z,257.01
2023-04-21T00:57:17.004Z,265.49
2023-04-21T01:00:24.028Z,268.04
2023-04-21T01:03:34.758Z,271.59
2023-04-21T01:06:45.817Z,279.86
2023-04-21T01:09:55.324Z,293.84
2023-04-21T01:13:03.630Z,296.88
2023-04-21T01:16:11.357Z,295.16
2023-04-21T01:19:20.966Z,296.04
2023-04-21T01:22:36.003Z,263.23
2023-04-21T01:25:42.784Z,252.32
2023-04-21T01:28:49.496Z,250.20
2023-04-21T01:31:56.316Z,256.39
2023-04-21T01:35:04.584Z,261.14
2023-04-21T01:38:14.531Z,232.98
2023-04-21T01:41:22.143Z,219.58
2023-04-21T01:44:35.460Z,229.14
2023-04-21T01:47:41.575Z,224.61
2023-04-21T01:50:56.330Z,241.75
2023-04-21T01:54:09.155Z,253.42
2023-04-21T01:57:16.071Z,267.66
2023-04-21T02:00:22.601Z,264.49
2023-04-21T02:03:29.700Z,268.98
2023-04-21T02:06:36.511Z,273.77
2023-04-21T02:09:46.406Z,276.22
2023-04-21T02:12:53.990Z,270.01
2023-04-21T02:16:12.881Z,271.79
2023-04-21T02:19:27.325Z,266.58
2023-04-21T02:22:34.847Z,268.31
2023-04-21T02:25:45.069Z,277.56
2023-04-21T02:28:52.743Z,289.00
2023-04-21T02:32:05.146Z,309.49
2023-04-21T02:35:17.920Z,286.13
2023-04-21T02:38:23.732Z,252.58
2023-04-21T02:41:33.164Z,252.07
2023-04-21T02:44:41.217Z,273.29
2023-04-21T02:47:48.010Z,281.14
2023-04-21T02:50:56.756Z,285.79
2023-04-21T02:54:05.192Z,298.03
2023-04-21T02:57:13.709Z,309.02
2023-04-21T03:00:21.333Z,311.84
2023-04-21T03:03:27.364Z,318.73
2023-04-21T03:06:37.241Z,331.76
2023-04-21T03:09:45.224Z,312.27
2023-04-21T03:12:54.705Z,335.09
2023-04-21T03:16:00.813Z,352.36
2023-04-21T03:19:07.676Z,348.11
2023-04-21T03:22:16.050Z,354.85
2023-04-21T03:25:30.438Z,327.96
2023-04-21T03:28:49.830Z,316.33
2023-04-21T03:32:06.182Z,317.85
2023-04-21T03:35:12.312Z,283.96
2023-04-21T03:38:19.077Z,257.84
2023-04-21T03:41:25.349Z,254.77
2023-04-21T03:44:34.967Z,266.55
2023-04-21T03:47:41.319Z,290.31
2023-04-21T03:50:48.119Z,288.05
2023-04-21T03:53:54.168Z,281.05
2023-04-21T03:57:00.812Z,269.36
2023-04-21T04:00:13.078Z,275.23
2023-04-21T04:03:21.900Z,273.49
2023-04-21T04:06:29.842Z,275.85
2023-04-21T04:09:36.551Z,289.85
2023-04-21T04:12:42.574Z,318.64
2023-04-21T04:15:51.973Z,312.10
2023-04-21T04:18:58.155Z,320.23
2023-04-21T04:22:07.962Z,319.14
2023-04-21T04:25:21.436Z,302.70
2023-04-21T04:28:29.203Z,306.17
2023-04-21T04:31:38.132Z,331.88
2023-04-21T04:34:44.920Z,307.66
2023-04-21T04:37:51.084Z,297.76
2023-04-21T04:40:59.271Z,292.19
2023-04-21T04:44:05.336Z,285.98
2023-04-21T04:47:15.400Z,302.08
2023-04-21T04:50:21.661Z,312.30
2023-04-21T04:53:28.616Z,321.77
2023-04-21T04:56:41.448Z,380.48
2023-04-21T04:59:57.351Z,364.80
2023-04-21T05:03:06.489Z,394.31
2023-04-21T05:06:14.393Z,406.72
2023-04-21T05:09:26.500Z,352.33
2023-04-21T05:12:38.157Z,356.96
2023-04-21T05:15:47.485Z,332.14
2023-04-21T05:18:56.968Z,349.37
2023-04-21T05:22:06.733Z,393.02
2023-04-21T05:25:16.206Z,399.79
2023-04-21T05:28:23.483Z,418.40
2023-04-21T05:31:30.639Z,412.57
2023-04-21T05:34:39.400Z,361.59
2023-04-21T05:37:46.184Z,282.50
2023-04-21T05:40:58.096Z,194.98
2023-04-21T05:44:04.953Z,180.35
2023-04-21T05:47:11.194Z,169.03
2023-04-21T05:50:20.693Z,162.09
2023-04-21T05:53:27.854Z,161.88
2023-04-21T05:56:34.659Z,166.87
2023-04-21T05:59:40.721Z,181.34
2023-04-21T06:02:47.580Z,192.10
2023-04-21T06:06:00.643Z,173.72
2023-04-21T06:09:10.249Z,149.82
2023-04-21T06:12:16.208Z,139.62
2023-04-21T06:15:22.942Z,134.72
2023-04-21T06:18:30.685Z,133.25
2023-04-21T06:21:40.038Z,122.36
2023-04-21T06:24:46.113Z,145.88
2023-04-21T06:27:52.850Z,139.73
2023-04-21T06:30:58.771Z,138.97
2023-04-21T06:34:05.849Z,138.63
2023-04-21T06:37:14.412Z,126.04
2023-04-21T06:40:21.474Z,120.07
2023-04-21T06:43:27.414Z,115.01
2023-04-21T06:46:34.214Z,119.20
2023-04-21T06:49:40.493Z,116.63
2023-04-21T06:52:50.019Z,116.32
2023-04-21T06:55:56.615Z,112.44
2023-04-21T06:59:03.557Z,109.69
2023-04-21T07:02:09.780Z,107.77
2023-04-21T07:05:16.582Z,108.19
2023-04-21T07:08:25.224Z,110.58
2023-04-21T07:11:32.094Z,113.46
2023-04-21T07:14:37.916Z,115.01
2023-04-21T07:17:44.786Z,113.66
2023-04-21T07:20:51.789Z,116.89
2023-04-21T07:24:01.709Z,111.26
2023-04-21T07:27:07.882Z,113.65
2023-04-21T07:30:16.088Z,113.02
2023-04-21T07:33:21.989Z,110.25
2023-04-21T07:36:31.107Z,114.32
2023-04-21T07:39:39.740Z,113.23
2023-04-21T07:42:46.691Z,109.46
2023-04-21T07:45:52.865Z,110.06
2023-04-21T07:49:13.532Z,106.80
2023-04-21T07:52:34.765Z,107.69
2023-04-21T07:55:44.219Z,107.23
2023-04-21T07:58:50.154Z,98.81
2023-04-21T08:01:57.273Z,101.58
2023-04-21T08:05:03.598Z,102.09
2023-04-21T08:08:10.817Z,96.61
2023-04-21T08:11:32.443Z,92.45
2023-04-21T08:14:39.252Z,86.63
2023-04-21T08:17:45.255Z,85.08
2023-04-21T08:20:52.762Z,82.90
2023-04-21T08:23:58.750Z,80.12
2023-04-21T08:27:08.233Z,77.67
2023-04-21T08:30:16.622Z,78.57
2023-04-21T08:33:23.595Z,80.48
2023-04-21T08:36:30.354Z,81.44
2023-04-21T08:39:37.549Z,80.70
2023-04-21T08:42:46.327Z,80.75
2023-04-21T08:45:55.656Z,80.53
2023-04-21T08:49:03.078Z,75.31
2023-04-21T08:52:16.965Z,74.23
2023-04-21T08:55:29.272Z,72.15
2023-04-21T08:58:39.006Z,75.65
2023-04-21T09:02:16.516Z,74.26
2023-04-21T09:05:27.486Z,76.35
2023-04-21T09:08:40.247Z,76.49
2023-04-21T09:11:53.211Z,76.25
2023-04-21T09:15:02.564Z,74.34
2023-04-21T09:18:16.053Z,77.65
2023-04-21T09:21:23.638Z,78.85
2023-04-21T09:24:34.126Z,82.18
2023-04-21T09:27:40.269Z,79.53
2023-04-21T09:30:49.645Z,78.56
2023-04-21T09:34:00.704Z,82.27
2023-04-21T09:37:18.207Z,98.52
2023-04-21T09:40:31.598Z,103.58
2023-04-21T09:43:52.317Z,96.60
2023-04-21T09:47:06.317Z,92.04
2023-04-21T09:50:17.199Z,87.77
2023-04-21T09:53:31.608Z,84.79
2023-04-21T09:56:45.726Z,79.28
2023-04-21T09:59:59.786Z,80.30
2023-04-21T10:03:11.772Z,77.56
2023-04-21T10:06:19.775Z,81.58
2023-04-21T10:09:34.680Z,81.19
2023-04-21T10:12:41.451Z,73.96
2023-04-21T10:15:48.331Z,73.22
2023-04-21T10:18:57.113Z,72.14
2023-04-21T10:22:04.071Z,71.56
2023-04-21T10:25:15.101Z,67.92
2023-04-21T10:28:25.241Z,66.46
2023-04-21T10:31:37.026Z,67.29
2023-04-21T10:34:47.066Z,65.04
2023-04-21T10:37:55.521Z,67.15
2023-04-21T10:41:34.129Z,68.95
2023-04-21T10:44:45.327Z,70.12
2023-04-21T10:47:53.067Z,65.69
2023-04-21T10:51:08.631Z,71.20
2023-04-21T10:54:21.303Z,68.03
2023-04-21T10:57:27.399Z,68.87
2023-04-21T11:00:34.806Z,70.86
2023-04-21T11:03:51.761Z,71.58
2023-04-21T11:07:15.361Z,70.46
2023-04-21T11:10:21.258Z,68.06
2023-04-21T11:13:34.008Z,68.59
2023-04-21T11:16:42.459Z,68.20
2023-04-21T11:19:52.562Z,70.11
2023-04-21T11:23:02.780Z,68.23
2023-04-21T11:26:09.552Z,68.14
2023-04-21T11:29:15.918Z,69.40
2023-04-21T11:32:22.701Z,76.65
2023-04-21T11:35:28.786Z,74.55
2023-04-21T11:38:44.898Z,75.72
2023-04-21T11:41:53.885Z,82.27
2023-04-21T11:45:01.306Z,81.18
2023-04-21T11:48:22.879Z,77.44
2023-04-21T11:51:31.791Z,82.08
2023-04-21T11:54:42.037Z,80.50
2023-04-21T11:57:49.086Z,84.96
2023-04-21T12:00:55.153Z,80.78
2023-04-21T12:04:02.069Z,76.84
2023-04-21T12:07:08.189Z,76.84
2023-04-21T12:10:21.687Z,72.83
2023-04-21T12:13:28.628Z,72.14
2023-04-21T12:16:35.560Z,72.74
2023-04-21T12:19:44.733Z,76.23
2023-04-21T12:22:52.700Z,75.90
2023-04-21T12:26:01.732Z,75.31
2023-04-21T12:29:08.524Z,71.48
2023-04-21T12:32:14.376Z,75.53
2023-04-21T12:35:35.980Z,69.04
2023-04-21T12:38:43.618Z,64.20
2023-04-21T12:41:52.991Z,67.80
2023-04-21T12:44:58.817Z,65.28
2023-04-21T12:48:07.073Z,65.32
2023-04-21T12:51:13.139Z,66.18
2023-04-21T12:54:20.665Z,67.28
2023-04-21T12:57:29.902Z,69.35
2023-04-21T13:00:36.840Z,67.30
2023-04-21T13:03:44.571Z,67.96
2023-04-21T13:06:51.782Z,66.06
2023-04-21T13:09:57.919Z,66.55
2023-04-21T13:13:07.607Z,68.35
2023-04-21T13:16:13.809Z,66.15
2023-04-21T13:19:20.844Z,66.32
2023-04-21T13:22:27.116Z,65.08
2023-04-21T13:25:34.055Z,65.05
2023-04-21T13:28:42.931Z,66.80
2023-04-21T13:31:49.904Z,65.06
2023-04-21T13:34:56.167Z,64.22
2023-04-21T13:38:02.913Z,64.12
2023-04-21T13:41:09.549Z,62.77
2023-04-21T13:44:19.090Z,62.88
2023-04-21T13:47:25.136Z,66.17
2023-04-21T13:50:32.038Z,64.07
2023-04-21T13:53:37.936Z,62.73
2023-04-21T13:56:44.845Z,64.73
2023-04-21T13:59:54.492Z,64.12
2023-04-21T14:03:01.910Z,66.97
2023-04-21T14:06:11.441Z,64.69
2023-04-21T14:09:18.682Z,68.90
2023-04-21T14:12:26.398Z,67.21
2023-04-21T14:15:36.200Z,66.83
2023-04-21T14:18:45.395Z,66.91
2023-04-21T14:21:52.177Z,63.28
2023-04-21T14:24:58.108Z,61.94
2023-04-21T14:28:07.583Z,63.64
2023-04-21T14:31:16.545Z,64.55
2023-04-21T14:34:23.426Z,60.95
2023-04-21T14:37:30.471Z,58.66
2023-04-21T14:40:37.293Z,60.74
2023-04-21T14:43:43.258Z,58.85
2023-04-21T14:47:05.602Z,58.30
2023-04-21T14:50:15.225Z,59.70
2023-04-21T14:53:22.177Z,56.00
2023-04-21T14:56:28.141Z,59.57
2023-04-21T14:59:35.289Z,60.30
2023-04-21T15:02:44.637Z,56.77
2023-04-21T15:05:51.490Z,58.84
2023-04-21T15:08:57.466Z,56.49
2023-04-21T15:12:04.321Z,55.56
2023-04-21T15:15:12.060Z,56.03
2023-04-21T15:18:21.663Z,56.35
2023-04-21T15:21:27.991Z,51.85
2023-04-21T15:24:34.896Z,54.96
2023-04-21T15:27:41.474Z,56.03
2023-04-21T15:30:48.356Z,57.10
2023-04-21T15:33:59.234Z,53.91
2023-04-21T15:37:05.981Z,51.09
2023-04-21T15:40:14.194Z,50.29
2023-04-21T15:43:22.040Z,50.19
2023-04-21T15:46:29.659Z,53.36
2023-04-21T15:49:39.296Z,55.11
2023-04-21T15:52:45.577Z,54.08
2023-04-21T15:55:52.756Z,54.35
2023-04-21T15:58:58.657Z,54.18
2023-04-21T16:02:06.372Z,56.37
2023-04-21T16:05:15.575Z,55.98
2023-04-21T16:08:22.468Z,53.80
2023-04-21T16:11:29.654Z,58.59
2023-04-21T16:14:51.255Z,65.84
2023-04-21T16:18:04.291Z,59.49
2023-04-21T16:21:13.871Z,60.24
2023-04-21T16:24:20.228Z,56.73
2023-04-21T16:27:27.133Z,55.34
2023-04-21T16:30:33.329Z,58.48
2023-04-21T16:33:40.088Z,56.01
2023-04-21T16:36:48.961Z,53.96
2023-04-21T16:40:02.863Z,55.70
2023-04-21T16:43:09.363Z,53.37
2023-04-21T16:46:22.873Z,56.02
2023-04-21T16:49:30.571Z,57.95
2023-04-21T16:52:40.149Z,55.21
2023-04-21T16:55:46.253Z,54.02
2023-04-21T16:58:58.567Z,54.37
2023-04-21T17:02:04.713Z,57.09
2023-04-21T17:05:13.062Z,56.61
2023-04-21T17:08:28.828Z,54.97
2023-04-21T17:11:37.502Z,52.52
2023-04-21T17:14:44.775Z,50.36
2023-04-21T17:17:51.656Z,51.37
2023-04-21T17:20:57.714Z,56.73
2023-04-21T17:24:07.650Z,57.42
2023-04-21T17:27:23.689Z,58.47
2023-04-21T17:30:30.440Z,59.47
2023-04-21T17:33:46.908Z,62.39
2023-04-21T17:36:53.937Z,62.33
2023-04-21T17:40:09.852Z,64.35
2023-04-21T17:43:16.829Z,70.28
2023-04-21T17:46:25.109Z,69.91
2023-04-21T17:49:32.516Z,71.77
2023-04-21T17:52:38.571Z,72.15
2023-04-21T17:55:48.109Z,67.83
2023-04-21T17:58:56.390Z,67.02
2023-04-21T18:02:16.201Z,67.40
2023-04-21T18:05:23.449Z,71.92
2023-04-21T18:08:30.388Z,66.23
2023-04-21T18:11:39.430Z,61.02
2023-04-21T18:14:46.329Z,61.91
2023-04-21T18:17:53.484Z,64.22
2023-04-21T18:21:00.571Z,71.06
2023-04-21T18:24:06.654Z,80.90
2023-04-21T18:27:17.810Z,86.85
2023-04-21T18:30:24.396Z,94.65
2023-04-21T18:33:32.066Z,92.04
2023-04-21T18:36:45.956Z,88.00
2023-04-21T18:39:52.688Z,89.03
2023-04-21T18:43:02.850Z,107.09
2023-04-21T18:46:21.831Z,119.88
2023-04-21T18:49:32.080Z,132.94
2023-04-21T18:52:38.961Z,124.67
2023-04-21T18:55:45.747Z,123.33
2023-04-21T18:58:57.008Z,121.80
2023-04-21T19:02:04.286Z,112.80
2023-04-21T19:05:12.665Z,107.01
2023-04-21T19:08:30.064Z,99.79
2023-04-21T19:11:45.279Z,122.72
2023-04-21T19:14:55.543Z,135.89
2023-04-21T19:18:02.562Z,140.04
2023-04-21T19:21:13.008Z,247.65
2023-04-21T19:24:21.606Z,204.94
2023-04-21T19:27:27.732Z,137.97
2023-04-21T19:30:37.615Z,121.80
2023-04-21T19:33:44.746Z,111.85
2023-04-21T19:36:53.225Z,119.50
2023-04-21T19:39:59.429Z,111.76
2023-04-21T19:43:09.103Z,115.14
2023-04-21T19:46:17.816Z,118.23
2023-04-21T19:49:25.205Z,106.12
2023-04-21T19:52:31.294Z,125.90
2023-04-21T19:55:38.065Z,148.97
2023-04-21T19:58:44.625Z,144.48
2023-04-21T20:02:05.246Z,152.62
2023-04-21T20:05:12.710Z,205.02
2023-04-21T20:08:24.540Z,244.16
2023-04-21T20:11:31.660Z,148.94
2023-04-21T20:14:41.955Z,155.41
2023-04-21T20:17:50.609Z,141.38
2023-04-21T20:20:57.558Z,200.31
2023-04-21T20:24:03.963Z,281.66
2023-04-21T20:27:10.758Z,303.55
2023-04-21T20:30:17.138Z,231.34
2023-04-21T20:33:28.386Z,207.52
2023-04-21T20:36:37.236Z,159.85
2023-04-21T20:39:47.189Z,140.76
2023-04-21T20:42:53.185Z,131.19
2023-04-21T20:46:00.112Z,130.86
2023-04-21T20:49:09.357Z,138.30
2023-04-21T20:52:16.328Z,137.89
2023-04-21T20:55:22.290Z,134.72
2023-04-21T20:58:28.960Z,131.73
2023-04-21T21:01:39.276Z,145.50
2023-04-21T21:04:49.530Z,147.91
2023-04-21T21:08:02.905Z,141.88
2023-04-21T21:11:15.900Z,145.41
2023-04-21T21:14:23.553Z,139.26
2023-04-21T21:17:30.412Z,134.56
2023-04-21T21:20:39.043Z,137.41
2023-04-21T21:23:45.800Z,135.94
2023-04-21T21:26:51.806Z,136.71
2023-04-21T21:29:58.571Z,127.32
2023-04-21T21:33:10.856Z,141.33
2023-04-21T21:36:20.294Z,139.55
2023-04-21T21:39:26.958Z,125.61
2023-04-21T21:42:33.672Z,120.11
2023-04-21T21:45:39.937Z,119.60
2023-04-21T21:48:46.730Z,121.00
2023-04-21T21:51:55.349Z,124.11
2023-04-21T21:55:05.288Z,138.55
2023-04-21T21:58:13.642Z,169.55
2023-04-21T22:01:23.737Z,149.96
2023-04-21T22:04:29.789Z,151.32
2023-04-21T22:07:41.122Z,152.00
2023-04-21T22:10:49.125Z,162.98
2023-04-21T22:13:56.711Z,168.41
2023-04-21T22:17:03.770Z,169.54
2023-04-21T22:20:12.455Z,170.71
2023-04-21T22:23:22.900Z,174.97
2023-04-21T22:26:29.646Z,174.34
2023-04-21T22:29:35.723Z,198.38
2023-04-21T22:32:42.709Z,198.21
2023-04-21T22:35:48.724Z,192.36
2023-04-21T22:38:58.161Z,207.34
2023-04-21T22:42:04.120Z,193.02
2023-04-21T22:45:18.676Z,188.22
2023-04-21T22:48:26.461Z,178.91
2023-04-21T22:51:33.327Z,176.53
2023-04-21T22:54:42.823Z,184.82
2023-04-21T22:57:50.062Z,186.71
2023-04-21T23:00:56.472Z,190.90
2023-04-21T23:04:05.055Z,183.08
2023-04-21T23:07:10.994Z,170.00
2023-04-21T23:10:20.755Z,161.69
2023-04-21T23:13:26.650Z,163.84
2023-04-21T23:16:33.468Z,164.10
2023-04-21T23:19:39.688Z,161.05
2023-04-21T23:22:47.679Z,154.83
2023-04-21T23:25:56.269Z,162.09
2023-04-21T23:29:05.421Z,165.87
2023-04-21T23:32:11.461Z,168.23
2023-04-21T23:35:18.113Z,205.87
2023-04-21T23:38:24.081Z,194.79
2023-04-21T23:41:33.776Z,214.22
2023-04-21T23:44:40.632Z,199.51
2023-04-21T23:47:48.217Z,201.20
2023-04-21T23:50:54.169Z,210.61
2023-04-21T23:54:01.954Z,213.97
2023-04-21T23:57:10.623Z,215.09
